Time,TemperatureF,DewpointF,PressureIn,WindDirection,WindDirectionDegrees,WindSpeedMPH,WindSpeedGustMPH,Humidity,HourlyPrecipIn,Conditions,Clouds,dailyrainin,SoftwareType,DateUTC
2013-01-15 00:00:00,48.8,44.5,29.99,WSW,253,0.0,0.0,85,0.01,RA,,0.00,WeatherDisplay:10.37,2013-01-14 23:00:00,
2013-01-15 00:10:00,48.6,44.0,29.98,WSW,253,0.0,1.0,84,0.00,CLR,,0.00,WeatherDisplay:10.37,2013-01-14 23:10:00,
2013-01-15 00:20:00,48.6,44.0,29.98,WSW,253,0.0,1.0,84,0.00,CLR,,0.00,WeatherDisplay:10.37,2013-01-14 23:20:00,
2013-01-15 00:30:00,48.6,44.3,29.98,WSW,253,0.0,2.0,85,0.00,CLR,,0.00,WeatherDisplay:10.37,2013-01-14 23:30:00,
2013-01-15 00:40:00,48.4,44.7,29.98,NNE,12,0.0,4.0,87,0.00,CLR,,0.00,WeatherDisplay:10.37,2013-01-14 23:40:00,
2013-01-15 00:50:00,47.7,44.6,29.98,NNE,32,0.0,5.0,89,0.00,CLR,,0.00,WeatherDisplay:10.37,2013-01-14 23:50:00,
2013-01-15 01:00:00,47.4,44.6,29.98,NNE,17,0.0,3.0,90,0.00,CLR,,0.00,WeatherDisplay:10.37,2013-01-15 00:00:00,
2013-01-15 01:10:00,46.9,44.1,29.98,NNE,27,0.0,3.0,90,0.00,CLR,,0.00,WeatherDisplay:10.37,2013-01-15 00:10:00,
2013-01-15 01:20:00,46.6,44.1,29.98,NNW,337,0.0,3.0,91,0.00,CLR,,0.00,WeatherDisplay:10.37,2013-01-15 00:20:00,
2013-01-15 01:30:00,46.3,44.1,29.98,NNW,338,0.0,3.0,92,0.00,CLR,,0.00,WeatherDisplay:10.37,2013-01-15 00:30:00,
2013-01-15 01:40:00,46.1,43.9,29.98,NNE,32,2.0,5.0,92,0.00,CLR,,0.00,WeatherDisplay:10.37,2013-01-15 00:40:00,
2013-01-15 01:50:00,46.1,43.9,29.98,NE,34,0.0,3.0,92,0.00,CLR,,0.00,WeatherDisplay:10.37,2013-01-15 00:50:00,
2013-01-15 02:00:00,46.1,43.9,29.99,NE,34,0.0,1.0,92,0.00,CLR,,0.00,WeatherDisplay:10.37,2013-01-15 01:00:00,
2013-01-15 02:10:00,46.2,44.0,29.99,NE,34,0.0,2.0,92,0.00,CLR,,0.00,WeatherDisplay:10.37,2013-01-15 01:10:00,
2013-01-15 02:20:00,46.3,44.1,29.99,NE,34,0.0,2.0,92,0.00,CLR,,0.00,WeatherDisplay:10.37,2013-01-15 01:20:00,
2013-01-15 02:30:00,46.5,44.3,29.99,NE,34,0.0,1.0,92,0.00,CLR,,0.00,WeatherDisplay:10.37,2013-01-15 01:30:00,
2013-01-15 02:40:00,46.7,44.5,29.98,NE,34,0.0,2.0,92,0.00,CLR,,0.00,WeatherDisplay:10.37,2013-01-15 01:40:00,
2013-01-15 02:50:00,46.5,44.1,29.98,NE,34,0.0,3.0,91,0.00,CLR,,0.00,WeatherDisplay:10.37,2013-01-15 01:50:00,
2013-01-15 03:00:00,46.5,44.3,29.98,NE,34,0.0,1.0,92,0.00,CLR,,0.00,WeatherDisplay:10.37,2013-01-15 02:00:00,
2013-01-15 03:10:00,46.9,42.9,29.95,NW,315,0.0,3.0,86,0.00,CLR,,0.00,WeatherDisplay:10.37,2013-01-15 02:10:00,
2013-01-15 03:20:00,46.5,44.3,29.98,NE,34,0.0,0.0,92,0.00,CLR,,0.00,WeatherDisplay:10.37,2013-01-15 02:20:00,
2013-01-15 03:30:00,46.7,44.5,29.98,NE,34,0.0,1.0,92,0.00,CLR,,0.00,WeatherDisplay:10.37,2013-01-15 02:30:00,
2013-01-15 03:40:00,47.1,44.9,29.98,NE,34,0.0,1.0,92,0.00,CLR,,0.00,WeatherDisplay:10.37,2013-01-15 02:40:00,
2013-01-15 03:50:00,47.4,45.2,29.97,NE,34,0.0,2.0,92,0.00,CLR,,0.00,WeatherDisplay:10.37,2013-01-15 02:50:00,
2013-01-15 04:00:00,47.6,45.4,29.97,NE,52,0.0,2.0,92,0.00,CLR,,0.00,WeatherDisplay:10.37,2013-01-15 03:00:00,
2013-01-15 04:10:00,47.8,45.3,29.97,SSE,162,0.0,3.0,91,0.00,CLR,,0.00,WeatherDisplay:10.37,2013-01-15 03:10:00,
2013-01-15 04:20:00,48.1,45.3,29.97,SSE,152,1.0,4.0,90,0.00,CLR,,0.00,WeatherDisplay:10.37,2013-01-15 03:20:00,
2013-01-15 04:30:00,48.2,45.4,29.96,SSE,148,0.0,2.0,90,0.00,CLR,,0.00,WeatherDisplay:10.37,2013-01-15 03:30:00,
2013-01-15 04:40:00,48.1,45.3,29.96,SSE,155,0.0,2.0,90,0.00,CLR,,0.00,WeatherDisplay:10.37,2013-01-15 03:40:00,
2013-01-15 04:50:00,48.1,45.3,29.96,SSE,148,0.0,2.0,90,0.00,CLR,,0.00,WeatherDisplay:10.37,2013-01-15 03:50:00,
2013-01-15 05:00:00,48.0,45.2,29.96,SE,140,0.0,4.0,90,0.00,CLR,,0.00,WeatherDisplay:10.37,2013-01-15 04:00:00,
2013-01-15 05:10:00,48.1,45.3,29.96,ENE,68,0.0,1.0,90,0.00,CLR,,0.00,WeatherDisplay:10.37,2013-01-15 04:10:00,
2013-01-15 05:20:00,48.2,45.4,29.97,SW,236,5.0,7.0,90,0.00,CLR,,0.00,WeatherDisplay:10.37,2013-01-15 04:20:00,
2013-01-15 05:30:00,48.0,45.2,29.97,WSW,251,3.0,8.0,90,0.00,CLR,,0.00,WeatherDisplay:10.37,2013-01-15 04:30:00,
2013-01-15 05:40:00,46.7,43.6,29.97,NW,307,5.0,9.0,89,0.00,CLR,,0.00,WeatherDisplay:10.37,2013-01-15 04:40:00,
2013-01-15 05:50:00,45.4,42.6,29.98,NNW,329,7.0,12.0,90,0.00,CLR,,0.00,WeatherDisplay:10.37,2013-01-15 04:50:00,
2013-01-15 06:00:00,51.6,46.0,29.90,NE,45,0.0,1.0,81,0.00,CLR,,0.00,WeatherDisplay:10.37,2013-01-15 05:00:00,
2013-01-15 06:10:00,44.2,41.7,29.97,NW,309,5.0,12.0,91,0.00,CLR,,0.00,WeatherDisplay:10.37,2013-01-15 05:10:00,
2013-01-15 06:20:00,44.1,41.6,29.97,NW,315,5.0,8.0,91,0.00,CLR,,0.00,WeatherDisplay:10.37,2013-01-15 05:20:00,
2013-01-15 06:30:00,44.0,41.3,29.97,NW,312,5.0,9.0,90,0.00,CLR,,0.00,WeatherDisplay:10.37,2013-01-15 05:30:00,
2013-01-15 06:40:00,44.2,41.5,29.97,NW,308,2.0,9.0,90,0.00,CLR,,0.00,WeatherDisplay:10.37,2013-01-15 05:40:00,
2013-01-15 06:50:00,44.3,41.3,29.97,NNW,329,1.0,6.0,89,0.00,CLR,,0.00,WeatherDisplay:10.37,2013-01-15 05:50:00,
2013-01-15 07:00:00,52.2,46.5,29.86,NE,45,0.0,1.0,81,0.00,CLR,,0.00,WeatherDisplay:10.37,2013-01-15 06:00:00,
2013-01-15 07:10:00,51.9,46.6,29.86,East,90,1.0,3.0,82,0.01,RA,,0.01,WeatherDisplay:10.37,2013-01-15 06:10:00,
2013-01-15 07:20:00,51.1,46.1,29.86,ESE,112,1.0,3.0,83,0.00,CLR,,0.01,WeatherDisplay:10.37,2013-01-15 06:20:00,
2013-01-15 07:30:00,50.6,46.3,29.85,ESE,112,0.0,2.0,85,0.00,CLR,,0.01,WeatherDisplay:10.37,2013-01-15 06:30:00,
2013-01-15 07:40:00,50.2,46.2,29.84,ESE,112,0.0,3.0,86,0.00,CLR,,0.01,WeatherDisplay:10.37,2013-01-15 06:40:00,
2013-01-15 07:50:00,50.0,46.0,29.84,ESE,112,0.0,1.0,86,0.00,CLR,,0.01,WeatherDisplay:10.37,2013-01-15 06:50:00,
2013-01-15 08:00:00,50.1,46.1,29.84,ESE,112,0.0,3.0,86,0.01,RA,,0.02,WeatherDisplay:10.37,2013-01-15 07:00:00,
2013-01-15 08:10:00,50.2,46.2,29.84,ESE,112,0.0,1.0,86,0.00,CLR,,0.02,WeatherDisplay:10.37,2013-01-15 07:10:00,
2013-01-15 08:20:00,50.2,46.5,29.83,ESE,112,0.0,2.0,87,0.00,CLR,,0.02,WeatherDisplay:10.37,2013-01-15 07:20:00,
2013-01-15 08:30:00,50.3,46.3,29.82,ESE,112,0.0,1.0,86,0.00,CLR,,0.02,WeatherDisplay:10.37,2013-01-15 07:30:00,
2013-01-15 08:40:00,50.4,46.4,29.82,ESE,112,0.0,1.0,86,0.00,CLR,,0.02,WeatherDisplay:10.37,2013-01-15 07:40:00,
2013-01-15 08:50:00,51.1,46.7,29.81,ESE,112,0.0,1.0,85,0.00,CLR,,0.02,WeatherDisplay:10.37,2013-01-15 07:50:00,
2013-01-15 09:00:00,52.1,46.8,29.81,ESE,112,0.0,3.0,82,0.00,CLR,,0.02,WeatherDisplay:10.37,2013-01-15 08:00:00,
2013-01-15 09:10:00,52.4,47.1,29.81,NE,45,1.0,3.0,82,0.00,CLR,,0.02,WeatherDisplay:10.37,2013-01-15 08:10:00,
2013-01-15 09:20:00,52.7,47.0,29.81,NE,45,0.0,3.0,81,0.00,CLR,,0.02,WeatherDisplay:10.37,2013-01-15 08:20:00,
2013-01-15 09:30:00,53.3,47.0,29.81,NE,45,0.0,2.0,79,0.00,CLR,,0.02,WeatherDisplay:10.37,2013-01-15 08:30:00,
2013-01-15 09:40:00,53.4,46.4,29.80,NE,45,0.0,1.0,77,0.00,CLR,,0.02,WeatherDisplay:10.37,2013-01-15 08:40:00,
2013-01-15 09:50:00,53.3,46.6,29.80,NE,45,0.0,2.0,78,0.00,CLR,,0.02,WeatherDisplay:10.37,2013-01-15 08:50:00,
2013-01-15 10:00:00,53.1,46.1,29.80,NE,45,0.0,2.0,77,0.00,CLR,,0.02,WeatherDisplay:10.37,2013-01-15 09:00:00,
2013-01-15 10:10:00,53.0,47.0,29.80,NE,45,0.0,1.0,80,0.00,CLR,,0.02,WeatherDisplay:10.37,2013-01-15 09:10:00,
2013-01-15 10:20:00,53.3,47.0,29.79,NE,45,0.0,0.0,79,0.00,CLR,,0.02,WeatherDisplay:10.37,2013-01-15 09:20:00,
2013-01-15 10:30:00,53.6,46.6,29.80,NE,45,0.0,1.0,77,0.00,CLR,,0.02,WeatherDisplay:10.37,2013-01-15 09:30:00,
2013-01-15 10:40:00,53.1,46.4,29.79,NE,45,0.0,2.0,78,0.00,CLR,,0.02,WeatherDisplay:10.37,2013-01-15 09:40:00,
2013-01-15 10:50:00,52.5,46.5,29.79,NE,45,0.0,2.0,80,0.00,CLR,,0.02,WeatherDisplay:10.37,2013-01-15 09:50:00,
2013-01-15 11:00:00,52.1,46.4,29.79,NE,45,0.0,3.0,81,0.00,CLR,,0.02,WeatherDisplay:10.37,2013-01-15 10:00:00,
2013-01-15 11:10:00,51.6,46.0,29.79,NE,45,0.0,2.0,81,0.00,CLR,,0.02,WeatherDisplay:10.37,2013-01-15 10:10:00,
2013-01-15 11:20:00,51.1,45.5,29.79,NE,45,0.0,3.0,81,0.00,CLR,,0.02,WeatherDisplay:10.37,2013-01-15 10:20:00,
2013-01-15 11:30:00,50.7,45.4,29.79,NE,45,0.0,0.0,82,0.00,CLR,,0.02,WeatherDisplay:10.37,2013-01-15 10:30:00,
2013-01-15 11:40:00,50.5,45.2,29.79,NE,45,0.0,1.0,82,0.00,CLR,,0.02,WeatherDisplay:10.37,2013-01-15 10:40:00,
2013-01-15 11:50:00,50.3,45.0,29.79,NE,45,0.0,0.0,82,0.00,CLR,,0.02,WeatherDisplay:10.37,2013-01-15 10:50:00,
2013-01-15 12:00:00,50.1,45.1,29.79,NE,45,0.0,2.0,83,0.00,CLR,,0.02,WeatherDisplay:10.37,2013-01-15 11:00:00,
2013-01-15 12:10:00,50.0,45.0,29.79,NE,45,0.0,2.0,83,0.00,CLR,,0.02,WeatherDisplay:10.37,2013-01-15 11:10:00,
2013-01-15 12:20:00,49.9,44.9,29.79,NE,45,0.0,2.0,83,0.00,CLR,,0.02,WeatherDisplay:10.37,2013-01-15 11:20:00,
2013-01-15 12:30:00,49.6,44.6,29.79,NE,45,0.0,2.0,83,0.00,CLR,,0.02,WeatherDisplay:10.37,2013-01-15 11:30:00,
2013-01-15 12:40:00,49.5,44.6,29.79,NE,45,0.0,1.0,83,0.00,CLR,,0.02,WeatherDisplay:10.37,2013-01-15 11:40:00,
2013-01-15 12:50:00,49.4,44.5,29.79,NE,45,0.0,2.0,83,0.00,CLR,,0.02,WeatherDisplay:10.37,2013-01-15 11:50:00,
2013-01-15 13:00:00,49.3,44.4,29.79,NE,45,0.0,0.0,83,0.00,CLR,,0.02,WeatherDisplay:10.37,2013-01-15 12:00:00,
2013-01-15 13:10:00,49.1,42.9,29.78,NE,45,0.0,2.0,79,0.00,CLR,,0.02,WeatherDisplay:10.37,2013-01-15 12:10:00,
2013-01-15 13:20:00,49.0,42.8,29.78,NE,45,0.0,2.0,79,0.00,CLR,,0.02,WeatherDisplay:10.37,2013-01-15 12:20:00,
2013-01-15 13:30:00,49.0,42.4,29.78,NE,45,0.0,1.0,78,0.00,CLR,,0.02,WeatherDisplay:10.37,2013-01-15 12:30:00,
2013-01-15 13:40:00,49.0,42.4,29.78,NE,45,0.0,1.0,78,0.00,CLR,,0.02,WeatherDisplay:10.37,2013-01-15 12:40:00,
2013-01-15 13:50:00,49.1,42.5,29.78,NE,45,0.0,0.0,78,0.00,CLR,,0.02,WeatherDisplay:10.37,2013-01-15 12:50:00,
2013-01-15 14:00:00,49.0,42.4,29.78,NE,45,0.0,0.0,78,0.00,CLR,,0.02,WeatherDisplay:10.37,2013-01-15 13:00:00,
2013-01-15 14:10:00,48.8,42.6,29.77,NE,45,0.0,0.0,79,0.00,CLR,,0.02,WeatherDisplay:10.37,2013-01-15 13:10:00,
2013-01-15 14:20:00,48.8,42.9,29.77,NE,45,0.0,0.0,80,0.00,CLR,,0.02,WeatherDisplay:10.37,2013-01-15 13:20:00,
2013-01-15 14:30:00,48.8,42.9,29.77,NE,45,0.0,0.0,80,0.00,CLR,,0.02,WeatherDisplay:10.37,2013-01-15 13:30:00,
2013-01-15 14:40:00,48.7,42.8,29.77,NE,45,0.0,0.0,80,0.00,CLR,,0.02,WeatherDisplay:10.37,2013-01-15 13:40:00,
2013-01-15 14:50:00,48.5,42.6,29.76,NE,45,0.0,1.0,80,0.00,CLR,,0.02,WeatherDisplay:10.37,2013-01-15 13:50:00,
2013-01-15 15:00:00,48.2,42.6,29.76,NE,45,0.0,0.0,81,0.00,CLR,,0.02,WeatherDisplay:10.37,2013-01-15 14:00:00,
2013-01-15 15:10:00,47.8,42.3,29.76,NE,45,0.0,0.0,81,0.00,CLR,,0.02,WeatherDisplay:10.37,2013-01-15 14:10:00,
2013-01-15 15:20:00,47.7,42.5,29.76,NE,45,0.0,0.0,82,0.00,CLR,,0.02,WeatherDisplay:10.37,2013-01-15 14:20:00,
2013-01-15 15:30:00,47.6,42.7,29.75,NE,45,0.0,0.0,83,0.00,CLR,,0.02,WeatherDisplay:10.37,2013-01-15 14:30:00,
2013-01-15 15:40:00,47.6,42.7,29.75,NE,45,0.0,1.0,83,0.00,CLR,,0.02,WeatherDisplay:10.37,2013-01-15 14:40:00,
2013-01-15 15:50:00,47.7,43.1,29.74,NE,45,0.0,2.0,84,0.00,CLR,,0.02,WeatherDisplay:10.37,2013-01-15 14:50:00,
2013-01-15 16:00:00,48.0,43.1,29.74,NE,45,0.0,2.0,83,0.00,CLR,,0.02,WeatherDisplay:10.37,2013-01-15 15:00:00,
2013-01-15 16:10:00,48.0,43.4,29.74,NE,45,0.0,0.0,84,0.00,CLR,,0.02,WeatherDisplay:10.37,2013-01-15 15:10:00,
2013-01-15 16:20:00,47.8,43.2,29.74,NE,45,0.0,1.0,84,0.00,CLR,,0.02,WeatherDisplay:10.37,2013-01-15 15:20:00,
2013-01-15 16:30:00,47.7,43.1,29.74,NE,45,0.0,1.0,84,0.00,CLR,,0.02,WeatherDisplay:10.37,2013-01-15 15:30:00,
2013-01-15 16:40:00,47.6,43.0,29.74,NE,45,0.0,1.0,84,0.00,CLR,,0.02,WeatherDisplay:10.37,2013-01-15 15:40:00,
2013-01-15 16:50:00,47.6,43.3,29.73,NE,45,0.0,1.0,85,0.00,CLR,,0.02,WeatherDisplay:10.37,2013-01-15 15:50:00,
2013-01-15 17:00:00,47.9,43.6,29.73,NE,45,0.0,3.0,85,0.00,CLR,,0.02,WeatherDisplay:10.37,2013-01-15 16:00:00,
2013-01-15 17:10:00,48.1,43.8,29.73,NE,45,0.0,3.0,85,0.00,CLR,,0.02,WeatherDisplay:10.37,2013-01-15 16:10:00,
2013-01-15 17:20:00,48.4,44.4,29.73,ESE,112,1.0,4.0,86,0.01,RA,,0.02,WeatherDisplay:10.37,2013-01-15 16:20:00,
2013-01-15 17:30:00,48.4,44.4,29.73,ESE,112,0.0,2.0,86,0.00,CLR,,0.02,WeatherDisplay:10.37,2013-01-15 16:30:00,
2013-01-15 17:40:00,48.4,44.4,29.72,ESE,112,0.0,3.0,86,0.00,CLR,,0.02,WeatherDisplay:10.37,2013-01-15 16:40:00,
2013-01-15 17:50:00,48.4,44.1,29.72,ESE,112,1.0,5.0,85,0.00,CLR,,0.02,WeatherDisplay:10.37,2013-01-15 16:50:00,
2013-01-15 18:00:00,48.5,44.2,29.71,SSE,158,1.0,4.0,85,0.00,CLR,,0.02,WeatherDisplay:10.37,2013-01-15 17:00:00,
2013-01-15 18:10:00,48.7,44.4,29.71,SSE,158,0.0,2.0,85,0.00,RA,,0.00,WeatherDisplay:10.37,2013-01-15 17:10:00,
2013-01-15 18:20:00,48.8,44.8,29.70,SSE,158,0.0,2.0,86,0.00,CLR,,0.00,WeatherDisplay:10.37,2013-01-15 17:20:00,
2013-01-15 18:30:00,48.9,44.3,29.70,SSE,158,2.0,8.0,84,0.00,CLR,,0.00,WeatherDisplay:10.37,2013-01-15 17:30:00,
2013-01-15 18:40:00,49.3,43.7,29.70,South,180,2.0,8.0,81,0.00,CLR,,0.00,WeatherDisplay:10.37,2013-01-15 17:40:00,
2013-01-15 18:50:00,49.4,44.1,29.69,SE,135,3.0,13.0,82,0.00,CLR,,0.00,WeatherDisplay:10.37,2013-01-15 17:50:00,
2013-01-15 19:00:00,49.4,44.1,29.69,SE,135,3.0,10.0,82,0.00,CLR,,0.00,WeatherDisplay:10.37,2013-01-15 18:00:00,
2013-01-15 19:10:00,49.2,43.6,29.68,SE,135,2.0,7.0,81,0.00,CLR,,0.00,WeatherDisplay:10.37,2013-01-15 18:10:00,
2013-01-15 19:20:00,49.3,44.4,29.68,South,180,3.0,10.0,83,0.01,RA,,0.01,WeatherDisplay:10.37,2013-01-15 18:20:00,
2013-01-15 19:30:00,49.1,44.5,29.67,SSW,202,3.0,10.0,84,0.00,CLR,,0.01,WeatherDisplay:10.37,2013-01-15 18:30:00,
2013-01-15 19:40:00,49.1,44.5,29.67,South,180,3.0,12.0,84,0.00,CLR,,0.01,WeatherDisplay:10.37,2013-01-15 18:40:00,
2013-01-15 19:50:00,49.1,43.8,29.67,SSW,202,5.0,16.0,82,0.01,RA,,0.02,WeatherDisplay:10.37,2013-01-15 18:50:00,
2013-01-15 20:00:00,48.2,42.0,29.66,South,180,3.0,16.0,79,0.01,RA,,0.02,WeatherDisplay:10.37,2013-01-15 19:00:00,
2013-01-15 20:10:00,48.1,42.5,29.66,South,180,3.0,13.0,81,0.00,CLR,,0.02,WeatherDisplay:10.37,2013-01-15 19:10:00,
2013-01-15 20:20:00,48.1,43.5,29.65,SE,135,3.0,13.0,84,0.00,CLR,,0.02,WeatherDisplay:10.37,2013-01-15 19:20:00,
2013-01-15 20:30:00,48.3,43.7,29.65,SSE,158,3.0,13.0,84,0.00,CLR,,0.02,WeatherDisplay:10.37,2013-01-15 19:30:00,
2013-01-15 20:40:00,49.4,43.2,29.64,South,180,5.0,15.0,79,0.00,CLR,,0.02,WeatherDisplay:10.37,2013-01-15 19:40:00,
2013-01-15 20:50:00,50.0,43.4,29.64,SSE,158,3.0,12.0,78,0.00,CLR,,0.02,WeatherDisplay:10.37,2013-01-15 19:50:00,
2013-01-15 21:00:00,50.4,43.8,29.63,SE,135,5.0,13.0,78,0.00,CLR,,0.02,WeatherDisplay:10.37,2013-01-15 20:00:00,
2013-01-15 21:10:00,50.6,44.3,29.62,ESE,112,3.0,11.0,79,0.00,CLR,,0.02,WeatherDisplay:10.37,2013-01-15 20:10:00,